sensor_id;sensor_type;location;lat;lon;timestamp;pressure;altitude;pressure_sealevel;temperature;humidity
56182;BME280;51963;46.052;14.544;2023-12-14T00:01:14;96991.63;;;2.84;100.00
56182;BME280;51963;46.052;14.544;2023-12-14T00:03:40;97026.34;;;2.92;100.00
56182;BME280;51963;46.052;14.544;2023-12-14T00:06:10;97027.63;;;2.97;100.00
56182;BME280;51963;46.052;14.544;2023-12-14T00:08:36;97039.69;;;3.21;100.00
56182;BME280;51963;46.052;14.544;2023-12-14T00:11:05;97024.59;;;3.31;100.00
56182;BME280;51963;46.052;14.544;2023-12-14T00:13:32;97018.81;;;3.21;100.00
56182;BME280;51963;46.052;14.544;2023-12-14T00:15:58;97028.44;;;3.20;100.00
56182;BME280;51963;46.052;14.544;2023-12-14T00:18:24;97037.19;;;3.04;100.00
56182;BME280;51963;46.052;14.544;2023-12-14T00:20:50;97051.22;;;3.03;100.00
56182;BME280;51963;46.052;14.544;2023-12-14T00:23:15;97026.63;;;2.98;100.00
56182;BME280;51963;46.052;14.544;2023-12-14T00:25:41;97051.78;;;3.22;100.00
56182;BME280;51963;46.052;14.544;2023-12-14T00:28:06;97046.88;;;3.19;100.00
56182;BME280;51963;46.052;14.544;2023-12-14T00:30:32;97037.13;;;3.13;100.00
56182;BME280;51963;46.052;14.544;2023-12-14T00:32:58;97040.09;;;3.10;100.00
56182;BME280;51963;46.052;14.544;2023-12-14T00:35:23;97019.94;;;2.95;100.00
56182;BME280;51963;46.052;14.544;2023-12-14T00:37:49;97036.53;;;3.02;100.00
56182;BME280;51963;46.052;14.544;2023-12-14T00:40:14;97045.38;;;3.01;100.00
56182;BME280;51963;46.052;14.544;2023-12-14T00:42:40;97045.97;;;3.12;100.00
56182;BME280;51963;46.052;14.544;2023-12-14T00:45:06;97064.19;;;3.20;100.00
56182;BME280;51963;46.052;14.544;2023-12-14T00:47:32;97061.31;;;3.06;100.00
56182;BME280;51963;46.052;14.544;2023-12-14T00:49:57;97062.94;;;3.07;100.00
56182;BME280;51963;46.052;14.544;2023-12-14T00:52:23;97055.41;;;3.13;100.00
56182;BME280;51963;46.052;14.544;2023-12-14T00:54:48;97065.47;;;3.24;100.00
56182;BME280;51963;46.052;14.544;2023-12-14T00:57:14;97067.19;;;3.08;100.00
56182;BME280;51963;46.052;14.544;2023-12-14T00:59:40;97079.44;;;3.08;100.00
56182;BME280;51963;46.052;14.544;2023-12-14T01:02:06;97080.25;;;3.08;100.00
56182;BME280;51963;46.052;14.544;2023-12-14T01:04:32;97074.38;;;3.06;100.00
56182;BME280;51963;46.052;14.544;2023-12-14T01:06:57;97079.13;;;3.34;100.00
56182;BME280;51963;46.052;14.544;2023-12-14T01:09:23;97076.59;;;3.49;100.00
56182;BME280;51963;46.052;14.544;2023-12-14T01:11:49;97084.63;;;3.40;100.00
56182;BME280;51963;46.052;14.544;2023-12-14T01:14:14;97080.44;;;3.30;100.00
56182;BME280;51963;46.052;14.544;2023-12-14T01:16:40;97069.06;;;3.23;100.00
56182;BME280;51963;46.052;14.544;2023-12-14T01:19:06;97079.41;;;3.40;100.00
56182;BME280;51963;46.052;14.544;2023-12-14T01:21:32;97075.91;;;3.24;100.00
56182;BME280;51963;46.052;14.544;2023-12-14T01:23:58;97089.97;;;3.23;100.00
56182;BME280;51963;46.052;14.544;2023-12-14T01:26:23;97093.91;;;3.19;100.00
56182;BME280;51963;46.052;14.544;2023-12-14T01:28:49;97087.41;;;3.15;100.00
56182;BME280;51963;46.052;14.544;2023-12-14T01:31:14;97090.22;;;3.36;100.00
56182;BME280;51963;46.052;14.544;2023-12-14T01:33:40;97102.69;;;3.26;100.00
56182;BME280;51963;46.052;14.544;2023-12-14T01:36:06;97116.78;;;3.17;100.00
56182;BME280;51963;46.052;14.544;2023-12-14T01:38:32;97119.28;;;3.10;100.00
56182;BME280;51963;46.052;14.544;2023-12-14T01:40:57;97119.91;;;3.12;100.00
56182;BME280;51963;46.052;14.544;2023-12-14T01:43:24;97128.31;;;3.31;100.00
56182;BME280;51963;46.052;14.544;2023-12-14T01:45:50;97125.16;;;3.35;100.00
56182;BME280;51963;46.052;14.544;2023-12-14T01:48:15;97133.97;;;3.34;100.00
56182;BME280;51963;46.052;14.544;2023-12-14T01:50:41;97133.81;;;3.36;100.00
56182;BME280;51963;46.052;14.544;2023-12-14T01:53:07;97137.91;;;3.30;100.00
56182;BME280;51963;46.052;14.544;2023-12-14T01:55:32;97145.75;;;3.30;100.00
56182;BME280;51963;46.052;14.544;2023-12-14T01:57:59;97146.41;;;3.32;100.00
56182;BME280;51963;46.052;14.544;2023-12-14T02:00:31;97144.38;;;3.43;100.00
56182;BME280;51963;46.052;14.544;2023-12-14T02:03:01;97137.88;;;3.38;100.00
56182;BME280;51963;46.052;14.544;2023-12-14T02:05:26;97153.84;;;3.44;100.00
56182;BME280;51963;46.052;14.544;2023-12-14T02:07:52;97144.81;;;3.55;100.00
56182;BME280;51963;46.052;14.544;2023-12-14T02:10:18;97148.78;;;3.50;100.00
56182;BME280;51963;46.052;14.544;2023-12-14T02:12:43;97149.25;;;3.77;100.00
56182;BME280;51963;46.052;14.544;2023-12-14T02:15:09;97147.44;;;3.78;100.00
56182;BME280;51963;46.052;14.544;2023-12-14T02:17:35;97151.66;;;3.79;100.00
56182;BME280;51963;46.052;14.544;2023-12-14T02:20:00;97141.81;;;3.66;100.00
56182;BME280;51963;46.052;14.544;2023-12-14T02:22:26;97158.53;;;3.80;100.00
56182;BME280;51963;46.052;14.544;2023-12-14T02:24:52;97167.13;;;3.65;100.00
56182;BME280;51963;46.052;14.544;2023-12-14T02:27:17;97176.81;;;3.57;100.00
56182;BME280;51963;46.052;14.544;2023-12-14T02:29:43;97173.69;;;3.61;100.00
56182;BME280;51963;46.052;14.544;2023-12-14T02:32:08;97178.81;;;3.78;100.00
56182;BME280;51963;46.052;14.544;2023-12-14T02:34:34;97180.03;;;3.90;100.00
56182;BME280;51963;46.052;14.544;2023-12-14T02:37:00;97172.38;;;3.89;100.00
56182;BME280;51963;46.052;14.544;2023-12-14T02:39:25;97189.91;;;3.80;100.00
56182;BME280;51963;46.052;14.544;2023-12-14T02:41:51;97193.25;;;3.65;100.00
56182;BME280;51963;46.052;14.544;2023-12-14T02:44:16;97198.19;;;3.60;100.00
56182;BME280;51963;46.052;14.544;2023-12-14T02:46:42;97202.63;;;3.60;100.00
56182;BME280;51963;46.052;14.544;2023-12-14T02:49:08;97206.38;;;3.57;100.00
56182;BME280;51963;46.052;14.544;2023-12-14T02:51:33;97208.00;;;3.58;100.00
56182;BME280;51963;46.052;14.544;2023-12-14T02:53:59;97206.59;;;3.47;100.00
56182;BME280;51963;46.052;14.544;2023-12-14T02:56:25;97195.66;;;3.44;100.00
56182;BME280;51963;46.052;14.544;2023-12-14T02:58:51;97194.56;;;3.38;100.00
56182;BME280;51963;46.052;14.544;2023-12-14T03:01:20;97186.72;;;3.38;100.00
56182;BME280;51963;46.052;14.544;2023-12-14T03:03:47;97191.81;;;3.31;100.00
56182;BME280;51963;46.052;14.544;2023-12-14T03:06:12;97191.25;;;3.44;100.00
56182;BME280;51963;46.052;14.544;2023-12-14T03:08:38;97197.94;;;3.47;100.00
56182;BME280;51963;46.052;14.544;2023-12-14T03:11:04;97200.88;;;3.44;100.00
56182;BME280;51963;46.052;14.544;2023-12-14T03:13:29;97204.97;;;3.46;100.00
56182;BME280;51963;46.052;14.544;2023-12-14T03:15:55;97208.09;;;3.42;100.00
56182;BME280;51963;46.052;14.544;2023-12-14T03:18:20;97218.53;;;3.42;100.00
56182;BME280;51963;46.052;14.544;2023-12-14T03:20:46;97220.38;;;3.33;100.00
56182;BME280;51963;46.052;14.544;2023-12-14T03:23:12;97212.03;;;3.37;100.00
56182;BME280;51963;46.052;14.544;2023-12-14T03:25:37;97218.56;;;3.33;100.00
56182;BME280;51963;46.052;14.544;2023-12-14T03:28:03;97225.91;;;3.38;100.00
56182;BME280;51963;46.052;14.544;2023-12-14T03:30:28;97226.56;;;3.40;100.00
56182;BME280;51963;46.052;14.544;2023-12-14T03:32:54;97205.22;;;3.20;100.00
56182;BME280;51963;46.052;14.544;2023-12-14T03:35:20;97244.34;;;3.36;100.00
56182;BME280;51963;46.052;14.544;2023-12-14T03:37:45;97244.66;;;3.42;100.00
56182;BME280;51963;46.052;14.544;2023-12-14T03:40:11;97250.22;;;3.38;100.00
56182;BME280;51963;46.052;14.544;2023-12-14T03:42:36;97254.16;;;3.34;100.00
56182;BME280;51963;46.052;14.544;2023-12-14T03:45:02;97252.53;;;3.33;100.00
56182;BME280;51963;46.052;14.544;2023-12-14T03:47:28;97247.81;;;3.37;100.00
56182;BME280;51963;46.052;14.544;2023-12-14T03:49:53;97261.50;;;3.39;100.00
56182;BME280;51963;46.052;14.544;2023-12-14T03:52:19;97251.84;;;3.40;100.00
56182;BME280;51963;46.052;14.544;2023-12-14T03:54:45;97240.28;;;3.42;100.00
56182;BME280;51963;46.052;14.544;2023-12-14T03:57:10;97256.38;;;3.54;100.00
56182;BME280;51963;46.052;14.544;2023-12-14T03:59:39;97259.66;;;3.48;100.00
56182;BME280;51963;46.052;14.544;2023-12-14T04:02:06;97252.19;;;3.36;100.00
56182;BME280;51963;46.052;14.544;2023-12-14T04:04:31;97254.16;;;3.34;100.00
56182;BME280;51963;46.052;14.544;2023-12-14T04:06:57;97265.56;;;3.42;100.00
56182;BME280;51963;46.052;14.544;2023-12-14T04:09:22;97251.91;;;3.23;100.00
56182;BME280;51963;46.052;14.544;2023-12-14T04:11:48;97254.03;;;3.28;100.00
56182;BME280;51963;46.052;14.544;2023-12-14T04:14:13;97252.25;;;3.20;100.00
56182;BME280;51963;46.052;14.544;2023-12-14T04:16:39;97259.09;;;3.29;100.00
56182;BME280;51963;46.052;14.544;2023-12-14T04:19:05;97264.81;;;3.25;100.00
56182;BME280;51963;46.052;14.544;2023-12-14T04:21:36;97255.84;;;3.19;100.00
56182;BME280;51963;46.052;14.544;2023-12-14T04:24:01;97256.69;;;3.19;100.00
56182;BME280;51963;46.052;14.544;2023-12-14T04:26:27;97256.38;;;3.14;100.00
56182;BME280;51963;46.052;14.544;2023-12-14T04:28:53;97247.06;;;3.12;100.00
56182;BME280;51963;46.052;14.544;2023-12-14T04:31:19;97247.69;;;3.14;100.00
56182;BME280;51963;46.052;14.544;2023-12-14T04:33:44;97263.03;;;3.17;100.00
56182;BME280;51963;46.052;14.544;2023-12-14T04:36:10;97266.97;;;3.13;100.00
56182;BME280;51963;46.052;14.544;2023-12-14T04:38:35;97275.44;;;3.15;100.00
56182;BME280;51963;46.052;14.544;2023-12-14T04:41:01;97271.38;;;3.12;100.00
56182;BME280;51963;46.052;14.544;2023-12-14T04:43:27;97284.75;;;3.26;100.00
56182;BME280;51963;46.052;14.544;2023-12-14T04:45:55;97286.22;;;3.68;100.00
56182;BME280;51963;46.052;14.544;2023-12-14T04:48:20;97279.63;;;3.80;100.00
56182;BME280;51963;46.052;14.544;2023-12-14T04:50:46;97277.69;;;3.74;100.00
56182;BME280;51963;46.052;14.544;2023-12-14T04:53:12;97285.06;;;3.71;100.00
56182;BME280;51963;46.052;14.544;2023-12-14T04:55:37;97286.78;;;3.47;100.00
56182;BME280;51963;46.052;14.544;2023-12-14T04:58:03;97291.97;;;3.55;100.00
56182;BME280;51963;46.052;14.544;2023-12-14T05:00:29;97277.63;;;3.51;100.00
56182;BME280;51963;46.052;14.544;2023-12-14T05:02:54;97283.53;;;3.45;100.00
56182;BME280;51963;46.052;14.544;2023-12-14T05:05:20;97287.16;;;3.35;100.00
56182;BME280;51963;46.052;14.544;2023-12-14T05:07:45;97282.28;;;3.24;100.00
56182;BME280;51963;46.052;14.544;2023-12-14T05:10:11;97281.91;;;3.35;100.00
56182;BME280;51963;46.052;14.544;2023-12-14T05:12:37;97284.22;;;3.30;100.00
56182;BME280;51963;46.052;14.544;2023-12-14T05:15:05;97284.22;;;3.30;100.00
56182;BME280;51963;46.052;14.544;2023-12-14T05:17:30;97293.53;;;3.33;100.00
56182;BME280;51963;46.052;14.544;2023-12-14T05:19:56;97300.94;;;3.61;100.00
56182;BME280;51963;46.052;14.544;2023-12-14T05:22:22;97300.50;;;3.49;100.00
56182;BME280;51963;46.052;14.544;2023-12-14T05:24:47;97301.44;;;3.56;100.00
56182;BME280;51963;46.052;14.544;2023-12-14T05:27:13;97300.00;;;3.54;100.00
56182;BME280;51963;46.052;14.544;2023-12-14T05:29:39;97307.38;;;3.42;100.00
56182;BME280;51963;46.052;14.544;2023-12-14T05:32:05;97314.56;;;3.40;100.00
56182;BME280;51963;46.052;14.544;2023-12-14T05:34:31;97318.69;;;3.34;100.00
56182;BME280;51963;46.052;14.544;2023-12-14T05:36:56;97326.34;;;3.35;100.00
56182;BME280;51963;46.052;14.544;2023-12-14T05:39:22;97318.94;;;3.56;100.00
56182;BME280;51963;46.052;14.544;2023-12-14T05:41:48;97319.00;;;3.79;100.00
56182;BME280;51963;46.052;14.544;2023-12-14T05:44:13;97331.69;;;3.90;100.00
56182;BME280;51963;46.052;14.544;2023-12-14T05:46:39;97332.41;;;3.76;100.00
56182;BME280;51963;46.052;14.544;2023-12-14T05:49:04;97328.22;;;3.58;100.00
56182;BME280;51963;46.052;14.544;2023-12-14T05:51:31;97326.31;;;3.44;100.00
56182;BME280;51963;46.052;14.544;2023-12-14T05:53:57;97326.31;;;3.44;100.00
56182;BME280;51963;46.052;14.544;2023-12-14T05:56:23;97322.72;;;3.45;100.00
56182;BME280;51963;46.052;14.544;2023-12-14T05:58:49;97335.59;;;3.63;100.00
56182;BME280;51963;46.052;14.544;2023-12-14T06:01:18;97341.16;;;3.51;100.00
56182;BME280;51963;46.052;14.544;2023-12-14T06:03:45;97352.44;;;3.44;100.00
56182;BME280;51963;46.052;14.544;2023-12-14T06:06:13;97358.50;;;3.44;100.00
56182;BME280;51963;46.052;14.544;2023-12-14T06:08:40;97354.56;;;3.48;100.00
56182;BME280;51963;46.052;14.544;2023-12-14T06:11:05;97363.50;;;3.62;100.00
56182;BME280;51963;46.052;14.544;2023-12-14T06:13:32;97368.97;;;3.44;100.00
56182;BME280;51963;46.052;14.544;2023-12-14T06:15:58;97368.97;;;3.36;100.00
56182;BME280;51963;46.052;14.544;2023-12-14T06:18:23;97361.81;;;3.30;100.00
56182;BME280;51963;46.052;14.544;2023-12-14T06:20:49;97373.22;;;3.37;100.00
56182;BME280;51963;46.052;14.544;2023-12-14T06:23:15;97362.56;;;3.47;100.00
56182;BME280;51963;46.052;14.544;2023-12-14T06:25:40;97373.00;;;3.55;100.00
56182;BME280;51963;46.052;14.544;2023-12-14T06:28:06;97392.22;;;3.71;100.00
56182;BME280;51963;46.052;14.544;2023-12-14T06:30:32;97373.47;;;3.67;100.00
56182;BME280;51963;46.052;14.544;2023-12-14T06:32:57;97391.34;;;3.95;100.00
56182;BME280;51963;46.052;14.544;2023-12-14T06:35:23;97404.63;;;3.77;100.00
56182;BME280;51963;46.052;14.544;2023-12-14T06:37:48;97412.47;;;3.77;100.00
56182;BME280;51963;46.052;14.544;2023-12-14T06:40:14;97410.19;;;3.74;100.00
56182;BME280;51963;46.052;14.544;2023-12-14T06:42:40;97421.31;;;3.76;100.00
56182;BME280;51963;46.052;14.544;2023-12-14T06:45:07;97425.56;;;3.77;100.00
56182;BME280;51963;46.052;14.544;2023-12-14T06:47:33;97425.84;;;3.90;100.00
56182;BME280;51963;46.052;14.544;2023-12-14T06:49:59;97428.94;;;4.02;100.00
56182;BME280;51963;46.052;14.544;2023-12-14T06:52:25;97432.66;;;4.08;100.00
56182;BME280;51963;46.052;14.544;2023-12-14T06:54:50;97439.47;;;4.17;100.00
56182;BME280;51963;46.052;14.544;2023-12-14T06:57:16;97439.06;;;4.05;100.00
56182;BME280;51963;46.052;14.544;2023-12-14T06:59:41;97456.03;;;4.09;100.00
56182;BME280;51963;46.052;14.544;2023-12-14T07:02:07;97455.53;;;4.06;100.00
56182;BME280;51963;46.052;14.544;2023-12-14T07:04:33;97442.44;;;4.14;100.00
56182;BME280;51963;46.052;14.544;2023-12-14T07:06:58;97459.09;;;4.21;100.00
56182;BME280;51963;46.052;14.544;2023-12-14T07:09:24;97457.91;;;4.32;100.00
56182;BME280;51963;46.052;14.544;2023-12-14T07:11:51;97460.69;;;4.31;100.00
56182;BME280;51963;46.052;14.544;2023-12-14T07:14:17;97460.56;;;4.24;100.00
56182;BME280;51963;46.052;14.544;2023-12-14T07:16:43;97480.28;;;4.35;100.00
56182;BME280;51963;46.052;14.544;2023-12-14T07:19:08;97483.34;;;4.55;100.00
56182;BME280;51963;46.052;14.544;2023-12-14T07:21:36;97488.41;;;4.48;100.00
56182;BME280;51963;46.052;14.544;2023-12-14T07:24:01;97485.53;;;4.35;100.00
56182;BME280;51963;46.052;14.544;2023-12-14T07:26:27;97487.72;;;4.23;100.00
56182;BME280;51963;46.052;14.544;2023-12-14T07:28:53;97501.44;;;4.25;100.00
56182;BME280;51963;46.052;14.544;2023-12-14T07:31:19;97501.56;;;4.32;100.00
56182;BME280;51963;46.052;14.544;2023-12-14T07:33:45;97495.72;;;4.21;100.00
56182;BME280;51963;46.052;14.544;2023-12-14T07:36:11;97505.38;;;4.21;100.00
56182;BME280;51963;46.052;14.544;2023-12-14T07:38:36;97509.22;;;4.50;100.00
56182;BME280;51963;46.052;14.544;2023-12-14T07:41:02;97518.38;;;4.46;100.00
56182;BME280;51963;46.052;14.544;2023-12-14T07:43:28;97517.91;;;4.34;100.00
56182;BME280;51963;46.052;14.544;2023-12-14T07:45:54;97513.56;;;4.18;100.00
56182;BME280;51963;46.052;14.544;2023-12-14T07:48:20;97533.34;;;4.12;100.00
56182;BME280;51963;46.052;14.544;2023-12-14T07:50:45;97532.03;;;4.16;100.00
56182;BME280;51963;46.052;14.544;2023-12-14T07:53:11;97535.31;;;4.18;100.00
56182;BME280;51963;46.052;14.544;2023-12-14T07:55:37;97524.06;;;4.09;100.00
56182;BME280;51963;46.052;14.544;2023-12-14T07:58:03;97540.50;;;4.26;100.00
56182;BME280;51963;46.052;14.544;2023-12-14T08:00:28;97549.00;;;4.29;100.00
56182;BME280;51963;46.052;14.544;2023-12-14T08:02:54;97551.94;;;4.34;100.00
56182;BME280;51963;46.052;14.544;2023-12-14T08:05:20;97542.41;;;4.49;100.00
56182;BME280;51963;46.052;14.544;2023-12-14T08:07:45;97555.84;;;4.46;100.00
56182;BME280;51963;46.052;14.544;2023-12-14T08:10:11;97551.91;;;4.42;100.00
56182;BME280;51963;46.052;14.544;2023-12-14T08:12:36;97564.31;;;4.57;100.00
56182;BME280;51963;46.052;14.544;2023-12-14T08:15:02;97556.75;;;4.62;100.00
56182;BME280;51963;46.052;14.544;2023-12-14T08:17:29;97570.16;;;4.67;100.00
56182;BME280;51963;46.052;14.544;2023-12-14T08:19:55;97578.53;;;4.62;100.00
56182;BME280;51963;46.052;14.544;2023-12-14T08:22:20;97568.38;;;4.67;100.00
56182;BME280;51963;46.052;14.544;2023-12-14T08:24:47;97576.59;;;4.96;100.00
56182;BME280;51963;46.052;14.544;2023-12-14T08:27:13;97581.91;;;4.79;100.00
56182;BME280;51963;46.052;14.544;2023-12-14T08:29:39;97583.75;;;4.70;100.00
56182;BME280;51963;46.052;14.544;2023-12-14T08:32:05;97585.50;;;4.78;100.00
56182;BME280;51963;46.052;14.544;2023-12-14T08:34:30;97594.34;;;4.77;100.00
56182;BME280;51963;46.052;14.544;2023-12-14T08:36:56;97593.97;;;4.89;100.00
56182;BME280;51963;46.052;14.544;2023-12-14T08:39:22;97598.16;;;5.06;100.00
56182;BME280;51963;46.052;14.544;2023-12-14T08:41:48;97595.91;;;4.95;100.00
56182;BME280;51963;46.052;14.544;2023-12-14T08:44:17;97601.31;;;5.25;100.00
56182;BME280;51963;46.052;14.544;2023-12-14T08:46:44;97604.28;;;5.30;100.00
56182;BME280;51963;46.052;14.544;2023-12-14T08:49:11;97613.19;;;5.12;100.00
56182;BME280;51963;46.052;14.544;2023-12-14T08:51:38;97610.63;;;4.96;100.00
56182;BME280;51963;46.052;14.544;2023-12-14T08:54:05;97611.91;;;5.08;100.00
56182;BME280;51963;46.052;14.544;2023-12-14T08:56:31;97608.63;;;5.06;100.00
56182;BME280;51963;46.052;14.544;2023-12-14T08:58:56;97618.78;;;5.09;100.00
56182;BME280;51963;46.052;14.544;2023-12-14T09:01:23;97628.69;;;4.82;100.00
56182;BME280;51963;46.052;14.544;2023-12-14T09:03:49;97615.13;;;4.87;100.00
56182;BME280;51963;46.052;14.544;2023-12-14T09:06:18;97625.25;;;4.90;100.00
56182;BME280;51963;46.052;14.544;2023-12-14T09:08:45;97627.34;;;4.95;100.00
56182;BME280;51963;46.052;14.544;2023-12-14T09:11:10;97635.28;;;4.70;100.00
56182;BME280;51963;46.052;14.544;2023-12-14T09:13:38;97626.59;;;5.18;100.00
56182;BME280;51963;46.052;14.544;2023-12-14T09:16:05;97635.09;;;5.20;100.00
56182;BME280;51963;46.052;14.544;2023-12-14T09:18:30;97636.28;;;5.17;100.00
56182;BME280;51963;46.052;14.544;2023-12-14T09:20:56;97647.84;;;4.91;100.00
56182;BME280;51963;46.052;14.544;2023-12-14T09:23:22;97653.63;;;5.18;100.00
56182;BME280;51963;46.052;14.544;2023-12-14T09:25:52;97659.03;;;5.48;100.00
56182;BME280;51963;46.052;14.544;2023-12-14T09:28:18;97649.94;;;5.36;100.00
56182;BME280;51963;46.052;14.544;2023-12-14T09:30:44;97661.50;;;5.50;100.00
56182;BME280;51963;46.052;14.544;2023-12-14T09:33:10;97660.81;;;5.56;100.00
56182;BME280;51963;46.052;14.544;2023-12-14T09:35:35;97667.09;;;5.47;100.00
56182;BME280;51963;46.052;14.544;2023-12-14T09:38:03;97650.34;;;5.16;100.00
56182;BME280;51963;46.052;14.544;2023-12-14T09:40:29;97660.66;;;5.18;100.00
56182;BME280;51963;46.052;14.544;2023-12-14T09:42:55;97660.50;;;5.19;100.00
56182;BME280;51963;46.052;14.544;2023-12-14T09:45:24;97664.63;;;5.05;100.00
56182;BME280;51963;46.052;14.544;2023-12-14T09:47:53;97676.34;;;5.34;100.00
56182;BME280;51963;46.052;14.544;2023-12-14T09:50:22;97676.03;;;5.61;100.00
56182;BME280;51963;46.052;14.544;2023-12-14T09:52:48;97674.78;;;5.08;100.00
56182;BME280;51963;46.052;14.544;2023-12-14T09:55:15;97677.25;;;5.10;100.00
56182;BME280;51963;46.052;14.544;2023-12-14T09:57:41;97672.53;;;4.97;100.00
56182;BME280;51963;46.052;14.544;2023-12-14T10:00:08;97668.28;;;4.96;100.00
56182;BME280;51963;46.052;14.544;2023-12-14T10:02:36;97681.94;;;5.31;100.00
56182;BME280;51963;46.052;14.544;2023-12-14T10:05:03;97681.31;;;5.12;100.00
56182;BME280;51963;46.052;14.544;2023-12-14T10:07:30;97680.69;;;5.02;100.00
56182;BME280;51963;46.052;14.544;2023-12-14T10:10:10;97682.31;;;5.11;100.00
56182;BME280;51963;46.052;14.544;2023-12-14T10:12:52;97681.63;;;5.18;100.00
56182;BME280;51963;46.052;14.544;2023-12-14T10:15:21;97686.19;;;5.24;100.00
56182;BME280;51963;46.052;14.544;2023-12-14T10:17:52;97692.19;;;5.41;100.00
56182;BME280;51963;46.052;14.544;2023-12-14T10:20:20;97682.91;;;5.30;100.00
56182;BME280;51963;46.052;14.544;2023-12-14T10:22:51;97687.66;;;5.66;100.00
56182;BME280;51963;46.052;14.544;2023-12-14T10:25:18;97690.81;;;5.85;100.00
56182;BME280;51963;46.052;14.544;2023-12-14T10:27:50;97692.50;;;5.78;100.00
56182;BME280;51963;46.052;14.544;2023-12-14T10:30:18;97686.75;;;5.51;100.00
56182;BME280;51963;46.052;14.544;2023-12-14T10:32:47;97704.16;;;5.43;100.00
56182;BME280;51963;46.052;14.544;2023-12-14T10:35:14;97693.56;;;5.60;100.00
56182;BME280;51963;46.052;14.544;2023-12-14T10:37:43;97701.88;;;5.40;100.00
56182;BME280;51963;46.052;14.544;2023-12-14T10:40:11;97694.13;;;5.47;100.00
56182;BME280;51963;46.052;14.544;2023-12-14T10:42:40;97694.00;;;5.40;100.00
56182;BME280;51963;46.052;14.544;2023-12-14T10:45:12;97689.41;;;5.42;100.00
56182;BME280;51963;46.052;14.544;2023-12-14T10:47:43;97698.69;;;5.53;100.00
56182;BME280;51963;46.052;14.544;2023-12-14T10:50:10;97686.69;;;5.59;100.00
56182;BME280;51963;46.052;14.544;2023-12-14T10:52:40;97701.69;;;5.42;100.00
56182;BME280;51963;46.052;14.544;2023-12-14T10:55:15;97703.63;;;5.80;100.00
56182;BME280;51963;46.052;14.544;2023-12-14T10:57:43;97712.53;;;6.02;100.00
56182;BME280;51963;46.052;14.544;2023-12-14T11:00:09;97728.41;;;6.09;100.00
56182;BME280;51963;46.052;14.544;2023-12-14T11:02:45;97715.91;;;6.11;100.00
56182;BME280;51963;46.052;14.544;2023-12-14T11:05:12;97714.28;;;6.10;100.00
56182;BME280;51963;46.052;14.544;2023-12-14T11:07:54;97720.41;;;5.94;100.00
56182;BME280;51963;46.052;14.544;2023-12-14T11:10:22;97719.78;;;5.92;100.00
56182;BME280;51963;46.052;14.544;2023-12-14T11:13:08;97713.44;;;5.86;100.00
56182;BME280;51963;46.052;14.544;2023-12-14T11:15:45;97728.06;;;6.12;100.00
56182;BME280;51963;46.052;14.544;2023-12-14T11:23:12;97729.16;;;6.41;100.00
56182;BME280;51963;46.052;14.544;2023-12-14T11:25:43;97721.53;;;6.08;100.00
56182;BME280;51963;46.052;14.544;2023-12-14T11:28:09;97712.47;;;6.10;100.00
56182;BME280;51963;46.052;14.544;2023-12-14T11:30:36;97738.09;;;6.31;100.00
56182;BME280;51963;46.052;14.544;2023-12-14T11:33:02;97738.31;;;6.22;100.00
56182;BME280;51963;46.052;14.544;2023-12-14T11:35:28;97736.25;;;6.55;100.00
56182;BME280;51963;46.052;14.544;2023-12-14T11:37:55;97705.09;;;6.29;100.00
56182;BME280;51963;46.052;14.544;2023-12-14T11:40:23;97749.69;;;6.37;100.00
56182;BME280;51963;46.052;14.544;2023-12-14T11:43:04;97734.88;;;6.21;100.00
56182;BME280;51963;46.052;14.544;2023-12-14T11:45:37;97750.47;;;5.91;100.00
56182;BME280;51963;46.052;14.544;2023-12-14T11:48:04;97740.72;;;6.00;100.00
56182;BME280;51963;46.052;14.544;2023-12-14T11:50:32;97729.63;;;5.90;100.00
56182;BME280;51963;46.052;14.544;2023-12-14T11:53:03;97745.44;;;6.13;100.00
56182;BME280;51963;46.052;14.544;2023-12-14T11:55:34;97733.38;;;5.95;100.00
56182;BME280;51963;46.052;14.544;2023-12-14T11:58:00;97733.31;;;6.12;100.00
56182;BME280;51963;46.052;14.544;2023-12-14T12:00:27;97741.34;;;6.34;100.00
56182;BME280;51963;46.052;14.544;2023-12-14T12:03:10;97752.69;;;5.71;100.00
56182;BME280;51963;46.052;14.544;2023-12-14T12:05:41;97733.63;;;5.46;100.00
56182;BME280;51963;46.052;14.544;2023-12-14T12:08:07;97752.06;;;5.61;100.00
56182;BME280;51963;46.052;14.544;2023-12-14T12:10:33;97756.78;;;5.73;100.00
56182;BME280;51963;46.052;14.544;2023-12-14T12:13:04;97756.09;;;5.80;100.00
56182;BME280;51963;46.052;14.544;2023-12-14T12:15:31;97758.72;;;5.80;100.00
56182;BME280;51963;46.052;14.544;2023-12-14T12:17:57;97758.28;;;5.99;100.00
56182;BME280;51963;46.052;14.544;2023-12-14T12:20:23;97743.25;;;6.16;100.00
56182;BME280;51963;46.052;14.544;2023-12-14T12:22:49;97759.66;;;6.19;100.00
56182;BME280;51963;46.052;14.544;2023-12-14T12:25:15;97755.50;;;6.01;100.00
56182;BME280;51963;46.052;14.544;2023-12-14T12:27:40;97746.06;;;6.15;100.00
56182;BME280;51963;46.052;14.544;2023-12-14T12:30:06;97757.59;;;5.74;100.00
56182;BME280;51963;46.052;14.544;2023-12-14T12:32:32;97753.94;;;5.52;100.00
56182;BME280;51963;46.052;14.544;2023-12-14T12:34:58;97760.66;;;5.86;100.00
56182;BME280;51963;46.052;14.544;2023-12-14T12:37:23;97747.88;;;6.14;100.00
56182;BME280;51963;46.052;14.544;2023-12-14T12:39:49;97755.78;;;6.06;100.00
56182;BME280;51963;46.052;14.544;2023-12-14T12:42:15;97759.66;;;6.42;100.00
56182;BME280;51963;46.052;14.544;2023-12-14T12:44:41;97767.41;;;6.35;100.00
56182;BME280;51963;46.052;14.544;2023-12-14T12:47:07;97753.47;;;6.35;100.00
56182;BME280;51963;46.052;14.544;2023-12-14T12:49:32;97758.03;;;6.41;100.00
56182;BME280;51963;46.052;14.544;2023-12-14T12:51:58;97771.31;;;6.39;100.00